Time;durP1;ratioP1;P1;durP2;ratioP2;P2;SDS_P1;SDS_P2;PMS_P1;PMS_P2;Temp;Humidity;BMP_temperature;BMP_pressure;BME280_temperature;BME280_humidity;BME280_pressure;Samples;Min_cycle;Max_cycle;Signal;HPM_P1;HPM_P2
2023/01/13 00:01:30;;;;;;;1.70;0.90;;;25.60;99.90;;;;;;5075899;28;20189;-85
2023/01/13 00:04:03;;;;;;;4.20;1.02;;;25.70;99.90;;;;;;5075705;28;20280;-85
2023/01/13 00:06:34;;;;;;;2.35;0.98;;;26.00;99.90;;;;;;5075481;28;20651;-83
2023/01/13 00:09:05;;;;;;;4.22;1.27;;;26.20;99.90;;;;;;5075522;28;20640;-87
2023/01/13 00:11:36;;;;;;;3.75;1.40;;;26.40;99.90;;;;;;5075616;28;20193;-88
2023/01/13 00:14:07;;;;;;;2.17;0.90;;;26.50;99.90;;;;;;5074855;28;20295;-88
2023/01/13 00:16:38;;;;;;;3.97;0.80;;;26.50;99.90;;;;;;5075671;28;20188;-80
2023/01/13 00:19:11;;;;;;;2.30;1.10;;;26.60;99.90;;;;;;5075057;28;20185;-88
2023/01/13 00:21:42;;;;;;;3.03;0.90;;;26.70;99.90;;;;;;5075466;28;20223;-84
2023/01/13 00:24:13;;;;;;;2.80;1.10;;;26.80;99.90;;;;;;5075604;28;20243;-84
2023/01/13 00:26:44;;;;;;;3.63;1.10;;;26.80;99.90;;;;;;5075399;28;20185;-85
2023/01/13 00:29:15;;;;;;;3.00;1.10;;;26.70;99.90;;;;;;5075085;28;20702;-86
2023/01/13 00:31:49;;;;;;;3.38;1.20;;;26.60;99.90;;;;;;5075115;28;20222;-87
2023/01/13 00:34:22;;;;;;;4.13;1.10;;;26.50;99.90;;;;;;5075007;28;20185;-86
2023/01/13 00:36:53;;;;;;;2.13;1.10;;;26.30;99.90;;;;;;5075226;28;20197;-88
2023/01/13 00:39:24;;;;;;;2.20;0.93;;;26.20;99.90;;;;;;5075346;28;20217;-86
2023/01/13 00:44:42;;;;;;;2.65;1.00;;;26.20;99.90;;;;;;5075375;28;20567;-90
2023/01/13 00:47:12;;;;;;;3.28;1.05;;;26.20;99.90;;;;;;5075011;28;20287;-86
2023/01/13 00:49:45;;;;;;;3.70;1.17;;;26.20;99.90;;;;;;5074759;28;20653;-86
2023/01/13 00:52:16;;;;;;;9.02;1.30;;;26.20;99.90;;;;;;5074868;28;20694;-89
2023/01/13 00:54:50;;;;;;;2.95;0.93;;;26.10;99.90;;;;;;5074917;28;20578;-89
2023/01/13 00:57:21;;;;;;;2.45;0.98;;;25.90;99.90;;;;;;5074608;28;20207;-88
2023/01/13 00:59:52;;;;;;;5.82;1.20;;;25.90;99.90;;;;;;5074697;28;20191;-87
2023/01/13 01:02:23;;;;;;;3.75;1.02;;;26.00;99.90;;;;;;5074728;28;20193;-86
2023/01/13 01:04:55;;;;;;;3.22;0.88;;;26.00;99.90;;;;;;5074752;28;20283;-86
2023/01/13 01:07:26;;;;;;;4.55;0.90;;;26.00;99.90;;;;;;5074655;28;20209;-85
2023/01/13 01:09:57;;;;;;;3.97;1.10;;;26.00;99.90;;;;;;5074513;28;20276;-83
2023/01/13 01:12:28;;;;;;;3.55;1.20;;;26.30;99.90;;;;;;5074767;28;20219;-85
2023/01/13 01:14:59;;;;;;;2.45;0.90;;;26.60;99.90;;;;;;5074468;28;20195;-84
2023/01/13 01:17:32;;;;;;;1.60;0.90;;;26.80;99.90;;;;;;5074281;28;20189;-88
2023/01/13 01:20:05;;;;;;;3.40;0.80;;;26.60;99.90;;;;;;5074305;28;20193;-87
2023/01/13 01:22:36;;;;;;;2.35;0.98;;;26.50;99.90;;;;;;5074352;28;20193;-88
2023/01/13 01:25:07;;;;;;;3.03;0.82;;;26.40;99.90;;;;;;5073154;28;20244;-86
2023/01/13 01:27:38;;;;;;;2.92;0.90;;;26.30;99.90;;;;;;5074147;28;20732;-90
2023/01/13 01:30:10;;;;;;;4.63;1.23;;;26.40;99.90;;;;;;5074057;28;20195;-86
2023/01/13 01:32:41;;;;;;;2.55;0.95;;;26.50;99.90;;;;;;5073756;28;20217;-89
2023/01/13 01:35:14;;;;;;;5.55;0.93;;;26.80;99.90;;;;;;5073833;28;20196;-86
2023/01/13 01:37:45;;;;;;;2.80;1.00;;;26.90;99.90;;;;;;5074126;28;20539;-83
2023/01/13 01:40:16;;;;;;;5.65;1.00;;;27.00;99.90;;;;;;5073853;28;20200;-88
2023/01/13 01:45:34;;;;;;;5.05;0.82;;;27.20;99.90;;;;;;5073799;28;20192;-90
2023/01/13 01:48:07;;;;;;;5.40;0.90;;;27.30;99.90;;;;;;5073484;28;20575;-85
2023/01/13 01:50:42;;;;;;;1.48;0.68;;;27.00;99.90;;;;;;5073613;28;20189;-87
2023/01/13 01:53:16;;;;;;;4.20;0.95;;;26.90;99.90;;;;;;5073404;28;20222;-85
2023/01/13 01:55:47;;;;;;;3.22;0.95;;;26.90;99.90;;;;;;5073621;28;20639;-86
2023/01/13 01:58:20;;;;;;;4.47;1.00;;;26.80;99.90;;;;;;5073776;28;20199;-86
2023/01/13 02:00:51;;;;;;;1.48;0.70;;;26.80;99.90;;;;;;5073292;28;20197;-85
2023/01/13 02:03:23;;;;;;;1.80;0.80;;;27.10;99.90;;;;;;5073330;28;20267;-83
2023/01/13 02:05:56;;;;;;;2.42;0.88;;;27.20;99.90;;;;;;5073519;28;20189;-90
2023/01/13 02:08:27;;;;;;;4.68;0.90;;;27.50;99.90;;;;;;5073543;28;20280;-83
2023/01/13 02:10:58;;;;;;;2.25;0.90;;;27.90;99.90;;;;;;5073425;28;20189;-86
2023/01/13 02:13:27;;;;;;;2.05;0.90;;;27.80;99.90;;;;;;5073405;28;20220;-81
2023/01/13 02:16:05;;;;;;;3.83;1.00;;;27.90;99.90;;;;;;5073259;28;20224;-86
2023/01/13 02:18:51;;;;;;;3.38;0.80;;;28.00;99.90;;;;;;5073219;28;20224;-82
2023/01/13 02:22:09;;;;;;;3.33;1.00;;;28.10;99.90;;;;;;5073243;28;20624;-88
2023/01/13 02:25:04;;;;;;;1.65;0.77;;;28.10;99.90;;;;;;5031127;28;20308;-86
2023/01/13 02:28:24;;;;;;;2.83;1.17;;;28.10;99.90;;;;;;5031534;28;20206;-88
2023/01/13 02:34:03;;;;;;;3.25;1.05;;;28.20;99.90;;;;;;5031483;28;20225;-88
2023/01/13 02:36:49;;;;;;;2.90;0.93;;;28.30;99.90;;;;;;5068303;28;20654;-90
2023/01/13 02:39:25;;;;;;;2.55;0.93;;;28.60;99.90;;;;;;5073045;28;20193;-80
2023/01/13 02:44:54;;;;;;;3.95;1.10;;;28.60;99.90;;;;;;5073187;28;20326;-86
2023/01/13 02:47:30;;;;;;;2.80;0.95;;;28.40;99.90;;;;;;5072855;28;20271;-82
2023/01/13 02:50:05;;;;;;;1.95;0.80;;;28.10;99.90;;;;;;5073367;28;20195;-88
2023/01/13 02:52:41;;;;;;;3.67;0.90;;;27.80;99.90;;;;;;5073148;28;20279;-88
2023/01/13 02:55:17;;;;;;;1.65;0.90;;;27.60;99.90;;;;;;5073049;28;20204;-82
2023/01/13 02:57:49;;;;;;;5.68;0.95;;;27.40;99.90;;;;;;5073168;28;20203;-84
2023/01/13 03:00:22;;;;;;;3.17;1.05;;;27.30;99.90;;;;;;5073067;28;20288;-86
2023/01/13 03:02:55;;;;;;;2.90;0.95;;;27.00;99.90;;;;;;5073056;28;20195;-85
2023/01/13 03:05:27;;;;;;;3.95;1.08;;;27.00;99.90;;;;;;5073127;28;20284;-88
2023/01/13 03:08:18;;;;;;;3.38;1.10;;;27.00;99.90;;;;;;5073194;28;20698;-91
2023/01/13 03:11:06;;;;;;;3.05;1.20;;;26.90;99.90;;;;;;5073036;28;20193;-88
2023/01/13 03:14:03;;;;;;;3.40;1.20;;;26.70;99.90;;;;;;5073788;28;20312;-82
2023/01/13 03:16:47;;;;;;;3.58;1.10;;;26.80;99.90;;;;;;5072829;28;20276;-82
2023/01/13 03:19:38;;;;;;;4.25;1.10;;;26.70;99.90;;;;;;5072921;28;20189;-81
2023/01/13 03:22:19;;;;;;;3.50;0.98;;;26.60;99.90;;;;;;5072954;28;20193;-88
2023/01/13 03:24:54;;;;;;;2.70;1.00;;;26.50;99.90;;;;;;5072721;28;20319;-89
2023/01/13 03:27:31;;;;;;;3.72;1.00;;;26.50;99.90;;;;;;5072759;28;20193;-80
2023/01/13 03:30:06;;;;;;;4.20;1.00;;;26.50;99.90;;;;;;5072858;28;20195;-85
2023/01/13 03:32:39;;;;;;;4.28;1.00;;;26.40;99.90;;;;;;5072729;28;20745;-81
2023/01/13 03:35:20;;;;;;;2.95;0.90;;;26.40;99.90;;;;;;5072328;28;20189;-84
2023/01/13 03:37:57;;;;;;;4.28;0.88;;;26.50;99.90;;;;;;5072693;28;20189;-87
2023/01/13 03:40:32;;;;;;;1.85;0.73;;;26.50;99.90;;;;;;5072584;28;20640;-83
2023/01/13 03:46:06;;;;;;;4.60;1.00;;;26.60;99.90;;;;;;5047897;28;20201;-83
2023/01/13 03:48:40;;;;;;;2.40;0.85;;;26.70;99.90;;;;;;5073909;28;20272;-85
2023/01/13 03:51:18;;;;;;;2.08;0.93;;;26.40;99.90;;;;;;5075653;28;20199;-81
2023/01/13 03:53:54;;;;;;;3.92;0.90;;;26.30;99.90;;;;;;5075819;28;20238;-83
2023/01/13 03:56:29;;;;;;;4.65;0.90;;;26.40;99.90;;;;;;5075761;28;20191;-82
2023/01/13 03:59:03;;;;;;;2.67;1.00;;;26.30;99.90;;;;;;5075708;28;20267;-80
2023/01/13 04:01:38;;;;;;;5.03;1.00;;;26.40;99.90;;;;;;5075761;28;20220;-81
2023/01/13 04:04:12;;;;;;;4.03;1.00;;;26.40;99.90;;;;;;5075981;28;20318;-80
2023/01/13 04:06:53;;;;;;;2.05;1.10;;;26.30;99.90;;;;;;5075590;28;20272;-84
2023/01/13 04:09:37;;;;;;;3.97;1.02;;;26.10;99.90;;;;;;5075531;28;20199;-87
2023/01/13 04:12:17;;;;;;;3.67;0.90;;;26.00;99.90;;;;;;5075228;28;20232;-85
2023/01/13 04:14:48;;;;;;;4.82;1.00;;;25.90;99.90;;;;;;5075346;28;20233;-85
2023/01/13 04:17:19;;;;;;;3.15;0.95;;;25.80;99.90;;;;;;5075151;28;20185;-84
2023/01/13 04:19:50;;;;;;;3.20;1.10;;;25.70;99.90;;;;;;5075478;28;20281;-80
2023/01/13 04:22:23;;;;;;;4.78;1.00;;;25.70;99.90;;;;;;5075779;28;20200;-82
2023/01/13 04:24:54;;;;;;;3.65;0.95;;;25.60;99.90;;;;;;5075119;28;20276;-86
2023/01/13 04:27:25;;;;;;;2.78;0.98;;;25.60;99.90;;;;;;5075022;28;20225;-86
2023/01/13 04:29:57;;;;;;;2.58;1.00;;;25.50;99.90;;;;;;5075291;28;20197;-86
2023/01/13 04:32:28;;;;;;;5.03;1.10;;;25.60;99.90;;;;;;5075065;28;20189;-80
2023/01/13 04:34:59;;;;;;;2.85;1.00;;;25.70;99.90;;;;;;5075106;28;20315;-86
2023/01/13 04:37:35;;;;;;;3.58;1.00;;;25.70;99.90;;;;;;5075491;28;20217;-91
2023/01/13 04:40:06;;;;;;;6.82;1.00;;;25.80;99.90;;;;;;5075055;28;20295;-81
2023/01/13 04:42:37;;;;;;;3.92;0.80;;;25.80;99.90;;;;;;5074917;28;20261;-86
2023/01/13 04:45:08;;;;;;;3.42;0.95;;;25.70;99.90;;;;;;5074891;28;20197;-89
2023/01/13 04:47:42;;;;;;;1.85;0.82;;;25.70;99.90;;;;;;5074779;28;20224;-87
2023/01/13 04:50:18;;;;;;;4.63;0.90;;;25.70;99.90;;;;;;5075190;28;20207;-81
2023/01/13 04:52:52;;;;;;;3.58;0.90;;;25.70;99.90;;;;;;5075013;28;20188;-85
2023/01/13 04:55:23;;;;;;;4.50;0.90;;;25.70;99.90;;;;;;5074323;28;20280;-88
2023/01/13 04:57:54;;;;;;;2.40;0.90;;;25.70;99.90;;;;;;5074473;28;20608;-85
2023/01/13 05:00:26;;;;;;;6.10;1.27;;;25.80;99.90;;;;;;5074488;28;20552;-83
2023/01/13 05:02:57;;;;;;;3.88;0.90;;;25.90;99.90;;;;;;5074495;28;20311;-83
2023/01/13 05:05:28;;;;;;;4.18;1.02;;;26.00;99.90;;;;;;5074445;28;20716;-85
2023/01/13 05:08:01;;;;;;;3.85;0.93;;;26.20;99.90;;;;;;5074497;28;20636;-83
2023/01/13 05:10:32;;;;;;;2.30;0.80;;;26.30;99.90;;;;;;5074396;28;20212;-83
2023/01/13 05:18:48;;;;;;;4.97;1.20;;;26.40;99.90;;;;;;5073995;28;20197;-82
2023/01/13 05:26:55;;;;;;;3.67;1.10;;;26.30;99.90;;;;;;5074205;28;20578;-82
2023/01/13 05:29:26;;;;;;;2.05;1.00;;;26.20;99.90;;;;;;5073865;28;20215;-79
2023/01/13 05:32:01;;;;;;;3.10;0.85;;;26.10;99.90;;;;;;5074316;28;20185;-82
2023/01/13 05:34:33;;;;;;;5.50;1.00;;;26.10;99.90;;;;;;5073965;28;20247;-77
2023/01/13 05:37:06;;;;;;;7.95;1.10;;;25.90;99.90;;;;;;5073782;28;20196;-80
2023/01/13 05:45:10;;;;;;;4.65;1.00;;;25.50;99.90;;;;;;5073914;28;20196;-84
2023/01/13 05:47:41;;;;;;;4.38;1.00;;;25.60;99.90;;;;;;5074130;28;20207;-82
2023/01/13 05:50:13;;;;;;;2.22;0.93;;;25.60;99.90;;;;;;5073823;28;20704;-80
2023/01/13 05:52:44;;;;;;;4.03;1.00;;;25.40;99.90;;;;;;5073524;28;20767;-85
2023/01/13 05:55:18;;;;;;;2.58;0.90;;;25.20;99.90;;;;;;5073480;28;20255;-87
2023/01/13 05:57:49;;;;;;;3.40;1.20;;;25.20;99.90;;;;;;5073687;28;20220;-79
2023/01/13 06:00:20;;;;;;;2.42;0.77;;;25.20;99.90;;;;;;5073556;28;20254;-81
2023/01/13 06:02:51;;;;;;;3.05;0.93;;;25.20;99.90;;;;;;5073556;28;20193;-86
2023/01/13 06:05:22;;;;;;;3.15;1.00;;;25.10;99.90;;;;;;5073478;28;20280;-83
2023/01/13 06:07:53;;;;;;;5.70;0.88;;;25.00;99.90;;;;;;5073328;28;20284;-83
2023/01/13 06:10:26;;;;;;;3.28;1.13;;;24.90;99.90;;;;;;5073127;28;20263;-89
2023/01/13 06:12:57;;;;;;;7.07;0.98;;;25.00;99.90;;;;;;5073594;28;20207;-84
2023/01/13 06:15:28;;;;;;;6.28;0.90;;;25.00;99.90;;;;;;5073324;28;20307;-86
2023/01/13 06:18:00;;;;;;;3.78;0.90;;;24.90;99.90;;;;;;5073292;28;20702;-82
2023/01/13 06:20:31;;;;;;;2.30;0.85;;;24.80;99.90;;;;;;5073385;28;20211;-85
2023/01/13 06:23:02;;;;;;;3.55;0.77;;;24.80;99.90;;;;;;5072650;28;20202;-85
2023/01/13 06:25:43;;;;;;;2.88;0.85;;;24.80;99.90;;;;;;5073380;28;20195;-87
2023/01/13 06:28:14;;;;;;;3.15;0.90;;;24.80;99.90;;;;;;5073216;28;20566;-84
2023/01/13 06:30:49;;;;;;;3.15;1.00;;;24.80;99.90;;;;;;5073303;28;20188;-85
2023/01/13 06:33:24;;;;;;;2.65;0.77;;;24.90;99.90;;;;;;5073188;28;20192;-86
2023/01/13 06:35:58;;;;;;;3.30;1.13;;;24.90;99.90;;;;;;5073114;28;20194;-84
2023/01/13 06:38:32;;;;;;;7.53;1.70;;;25.00;99.90;;;;;;5073206;28;20185;-84
2023/01/13 06:41:08;;;;;;;6.43;2.00;;;24.90;99.90;;;;;;5073038;28;20303;-82
2023/01/13 06:43:39;;;;;;;4.20;1.10;;;24.90;99.90;;;;;;5073113;28;20276;-79
2023/01/13 06:46:10;;;;;;;5.47;1.60;;;24.90;99.90;;;;;;5073064;28;20204;-80
2023/01/13 06:48:41;;;;;;;4.20;1.00;;;24.80;99.90;;;;;;5073132;28;20196;-83
2023/01/13 06:51:12;;;;;;;3.30;1.02;;;24.80;99.90;;;;;;5072739;28;20284;-82
2023/01/13 06:53:43;;;;;;;4.43;1.00;;;24.80;99.90;;;;;;5073017;28;20193;-79
2023/01/13 06:56:15;;;;;;;4.10;1.00;;;24.80;99.90;;;;;;5073014;28;20189;-80
2023/01/13 06:58:47;;;;;;;3.65;1.00;;;24.60;99.90;;;;;;5072978;28;20184;-86
2023/01/13 07:01:18;;;;;;;3.60;1.20;;;24.70;99.90;;;;;;5072799;28;20284;-84
2023/01/13 07:03:49;;;;;;;4.20;1.20;;;24.70;99.90;;;;;;5072899;28;20225;-83
2023/01/13 07:06:20;;;;;;;4.05;1.15;;;24.80;99.90;;;;;;5072658;28;20189;-86
2023/01/13 07:08:51;;;;;;;3.88;1.23;;;24.70;99.90;;;;;;5072782;28;20189;-77
2023/01/13 07:11:24;;;;;;;4.25;1.27;;;24.70;99.90;;;;;;5072709;28;20729;-83
2023/01/13 07:16:55;;;;;;;3.30;0.95;;;24.60;99.90;;;;;;5050844;28;20197;-83
2023/01/13 07:19:26;;;;;;;4.75;1.20;;;24.60;99.90;;;;;;5067865;28;20297;-84
2023/01/13 07:21:57;;;;;;;3.03;1.00;;;24.50;99.90;;;;;;5072765;28;20197;-82
2023/01/13 07:24:28;;;;;;;2.63;1.00;;;24.50;99.90;;;;;;5075749;28;20274;-87
2023/01/13 07:27:01;;;;;;;2.03;1.00;;;24.40;99.90;;;;;;5076756;28;20207;-79
2023/01/13 07:29:32;;;;;;;2.35;1.10;;;24.40;99.90;;;;;;5076600;28;20215;-83
2023/01/13 07:32:03;;;;;;;4.20;1.48;;;24.30;99.90;;;;;;5076591;28;20185;-85
2023/01/13 07:34:34;;;;;;;4.07;1.00;;;24.30;99.90;;;;;;5076176;28;20251;-87
2023/01/13 07:37:05;;;;;;;4.65;1.10;;;24.30;99.90;;;;;;5076397;28;20200;-84
2023/01/13 07:39:36;;;;;;;3.53;1.00;;;24.30;99.90;;;;;;5076391;28;20185;-84
2023/01/13 07:44:56;;;;;;;5.28;1.50;;;24.30;99.90;;;;;;5076335;28;20184;-85
2023/01/13 07:47:27;;;;;;;6.38;1.40;;;24.20;99.90;;;;;;5076296;28;20263;-81
2023/01/13 07:49:58;;;;;;;5.03;1.20;;;24.20;99.90;;;;;;5075907;28;20644;-83
2023/01/13 07:52:29;;;;;;;5.38;0.93;;;24.10;99.90;;;;;;5076047;28;20276;-82
2023/01/13 07:55:00;;;;;;;4.90;1.20;;;24.10;99.90;;;;;;5075924;28;20585;-84
2023/01/13 07:57:33;;;;;;;3.20;1.23;;;24.10;99.90;;;;;;5076199;28;20188;-82
2023/01/13 08:00:04;;;;;;;4.25;1.10;;;24.00;99.90;;;;;;5076043;28;20525;-86
2023/01/13 08:02:35;;;;;;;4.90;1.42;;;24.00;99.90;;;;;;5075862;28;20627;-82
2023/01/13 08:05:06;;;;;;;3.40;1.30;;;24.00;99.90;;;;;;5075530;28;20236;-86
2023/01/13 08:07:37;;;;;;;5.53;1.50;;;23.90;99.90;;;;;;5075656;28;20189;-84
2023/01/13 08:10:11;;;;;;;3.30;1.13;;;23.90;99.90;;;;;;5075732;28;20192;-87
2023/01/13 08:15:30;;;;;;;3.42;1.15;;;23.90;99.90;;;;;;5075551;28;20216;-87
2023/01/13 08:18:01;;;;;;;5.60;1.33;;;23.90;99.90;;;;;;5075341;28;20649;-83
2023/01/13 08:20:32;;;;;;;5.55;1.10;;;23.90;99.90;;;;;;5075817;28;20193;-87
2023/01/13 08:23:03;;;;;;;4.85;1.13;;;23.80;99.90;;;;;;5075235;28;20193;-86
2023/01/13 08:25:35;;;;;;;5.78;1.02;;;23.80;99.90;;;;;;5075526;28;20276;-85
2023/01/13 08:28:08;;;;;;;5.20;1.20;;;23.80;99.90;;;;;;5074362;28;20215;-85
2023/01/13 08:30:39;;;;;;;4.75;1.17;;;23.80;99.90;;;;;;5075480;28;20193;-85
2023/01/13 08:33:11;;;;;;;5.00;1.40;;;23.80;99.90;;;;;;5075047;28;20201;-85
2023/01/13 08:35:43;;;;;;;5.93;1.30;;;23.80;99.90;;;;;;5074724;28;20274;-86
2023/01/13 08:38:14;;;;;;;4.57;1.20;;;23.70;99.90;;;;;;5075092;28;20258;-84
2023/01/13 08:40:45;;;;;;;5.20;1.30;;;23.70;99.90;;;;;;5075132;28;20225;-86
2023/01/13 08:43:18;;;;;;;2.17;1.00;;;23.70;99.90;;;;;;5074810;28;20275;-85
2023/01/13 08:45:56;;;;;;;8.15;1.70;;;23.70;99.90;;;;;;5075045;28;20640;-89
2023/01/13 08:48:27;;;;;;;5.05;1.70;;;23.70;99.90;;;;;;5074811;28;20250;-84
2023/01/13 08:51:04;;;;;;;3.92;1.23;;;23.60;99.90;;;;;;5075213;28;20192;-85
2023/01/13 08:53:35;;;;;;;6.18;1.60;;;23.60;99.90;;;;;;5075284;28;20735;-86
2023/01/13 08:56:11;;;;;;;6.15;1.40;;;23.50;99.90;;;;;;5074821;28;20307;-85
2023/01/13 08:58:44;;;;;;;6.35;1.25;;;23.50;99.90;;;;;;5074739;28;20267;-85
2023/01/13 09:01:19;;;;;;;6.38;1.10;;;23.50;99.90;;;;;;5074379;28;20276;-84
2023/01/13 09:03:50;;;;;;;4.68;1.17;;;23.50;99.90;;;;;;5074671;28;20566;-87
2023/01/13 09:06:21;;;;;;;4.57;1.40;;;23.40;99.90;;;;;;5074767;28;20195;-86
2023/01/13 09:08:52;;;;;;;5.93;1.25;;;23.40;99.90;;;;;;5074637;28;20193;-84
2023/01/13 09:14:20;;;;;;;5.40;1.25;;;23.40;99.90;;;;;;5074398;28;20184;-77
2023/01/13 09:16:51;;;;;;;6.05;1.60;;;23.40;99.90;;;;;;5074215;28;20196;-86
2023/01/13 09:19:22;;;;;;;5.05;1.20;;;23.40;99.90;;;;;;5074173;28;20203;-85
2023/01/13 09:21:53;;;;;;;6.45;1.15;;;23.30;99.90;;;;;;5074510;28;20275;-86
2023/01/13 09:24:25;;;;;;;7.78;1.50;;;23.30;99.90;;;;;;5074154;28;20228;-83
2023/01/13 09:26:56;;;;;;;6.25;1.27;;;23.30;99.90;;;;;;5074229;28;20555;-80
2023/01/13 09:29:29;;;;;;;9.25;1.77;;;23.30;99.90;;;;;;5073897;28;20615;-81
2023/01/13 09:32:00;;;;;;;9.30;1.38;;;23.30;99.90;;;;;;5073894;28;20276;-86
2023/01/13 09:37:18;;;;;;;4.72;1.08;;;23.30;99.90;;;;;;5074002;28;20192;-87
2023/01/13 09:39:49;;;;;;;8.18;1.33;;;23.20;99.90;;;;;;5073857;28;20557;-83
2023/01/13 09:45:20;;;;;;;6.97;1.17;;;23.20;99.90;;;;;;5073247;28;20690;-86
2023/01/13 09:47:56;;;;;;;6.57;1.10;;;23.20;99.90;;;;;;5073667;28;20283;-84
2023/01/13 09:50:43;;;;;;;2.95;0.93;;;23.20;99.90;;;;;;5074182;28;20208;-85
2023/01/13 09:53:19;;;;;;;4.18;1.20;;;23.20;99.90;;;;;;5073593;28;20277;-83
2023/01/13 09:55:51;;;;;;;2.53;1.02;;;23.20;99.90;;;;;;5073657;28;20227;-83
2023/01/13 09:58:23;;;;;;;3.58;0.93;;;23.20;99.90;;;;;;5073707;28;20197;-85
2023/01/13 10:01:08;;;;;;;6.53;1.20;;;23.20;99.90;;;;;;5073432;28;20234;-86
2023/01/13 10:03:38;;;;;;;3.03;1.02;;;23.20;99.90;;;;;;5074017;28;20272;-85
2023/01/13 10:06:15;;;;;;;6.43;1.50;;;23.10;99.90;;;;;;5073944;28;20201;-84
2023/01/13 10:08:47;;;;;;;6.68;1.27;;;23.10;99.90;;;;;;5073714;28;20197;-86
2023/01/13 10:14:17;;;;;;;4.82;1.20;;;23.00;99.90;;;;;;5073396;28;20184;-82
2023/01/13 10:16:54;;;;;;;5.90;1.00;;;23.00;99.90;;;;;;5073681;28;20221;-85
2023/01/13 10:19:28;;;;;;;5.22;1.02;;;23.00;99.90;;;;;;5073388;28;20275;-85
2023/01/13 10:22:38;;;;;;;8.63;1.15;;;23.00;99.90;;;;;;5073649;28;20192;-84
2023/01/13 10:25:26;;;;;;;6.38;1.50;;;23.00;99.90;;;;;;5072913;28;20264;-86
2023/01/13 10:27:58;;;;;;;4.38;1.00;;;23.00;99.90;;;;;;5066116;28;20205;-88
2023/01/13 10:30:32;;;;;;;3.42;1.10;;;23.00;99.90;;;;;;5073665;28;20279;-85
2023/01/13 10:33:11;;;;;;;7.95;1.23;;;23.00;99.90;;;;;;5073170;28;20202;-89
2023/01/13 10:35:59;;;;;;;8.23;1.17;;;23.00;99.90;;;;;;5073331;28;20216;-85
2023/01/13 10:38:37;;;;;;;3.65;0.90;;;23.00;99.90;;;;;;5073108;28;20185;-85
2023/01/13 10:41:19;;;;;;;4.57;1.08;;;23.00;99.90;;;;;;5072766;28;20220;-82
2023/01/13 10:44:03;;;;;;;6.00;1.27;;;22.90;99.90;;;;;;5073277;28;20196;-87
2023/01/13 10:46:35;;;;;;;7.15;1.30;;;22.90;99.90;;;;;;5073106;28;20188;-84
2023/01/13 10:49:32;;;;;;;5.47;1.08;;;22.90;99.90;;;;;;5073377;28;20193;-85
2023/01/13 10:52:04;;;;;;;7.25;1.30;;;22.90;99.90;;;;;;5073079;28;20192;-85
2023/01/13 10:55:01;;;;;;;8.10;1.23;;;22.90;99.90;;;;;;5073182;28;20197;-89
2023/01/13 10:57:37;;;;;;;5.28;0.95;;;22.90;99.90;;;;;;5074320;28;20290;-87
2023/01/13 11:00:27;;;;;;;4.47;1.10;;;22.80;99.90;;;;;;5077188;28;20196;-89
2023/01/13 11:03:19;;;;;;;5.00;1.17;;;22.80;99.90;;;;;;5077035;28;20534;-84
2023/01/13 11:06:00;;;;;;;5.53;1.00;;;22.80;99.90;;;;;;5076873;28;20204;-84
2023/01/13 11:08:36;;;;;;;5.45;1.08;;;22.80;99.90;;;;;;5077070;28;20191;-89
2023/01/13 11:11:43;;;;;;;4.53;1.17;;;22.80;99.90;;;;;;5076710;28;20564;-85
2023/01/13 11:14:40;;;;;;;7.90;1.20;;;22.80;99.90;;;;;;5076838;28;20192;-86
2023/01/13 11:17:29;;;;;;;2.85;1.10;;;22.80;99.90;;;;;;5076425;28;20216;-79
2023/01/13 11:20:08;;;;;;;4.90;1.08;;;22.80;99.90;;;;;;5076784;28;20283;-83
2023/01/13 11:22:48;;;;;;;6.35;1.25;;;22.80;99.90;;;;;;5076583;28;20189;-85
2023/01/13 11:25:23;;;;;;;5.65;1.10;;;22.80;99.90;;;;;;5076596;28;20675;-86
2023/01/13 11:27:59;;;;;;;6.15;1.30;;;22.70;99.90;;;;;;5076181;28;20615;-84
2023/01/13 11:30:38;;;;;;;5.15;1.00;;;22.70;99.90;;;;;;5076440;28;20189;-86
2023/01/13 11:33:32;;;;;;;5.25;1.00;;;22.70;99.90;;;;;;5076455;28;20211;-87
2023/01/13 11:36:10;;;;;;;4.78;0.90;;;22.70;99.90;;;;;;5076064;28;20589;-83
2023/01/13 11:38:48;;;;;;;5.65;1.20;;;22.70;99.90;;;;;;5076338;28;20640;-86
2023/01/13 11:41:30;;;;;;;5.68;1.20;;;22.70;99.90;;;;;;5075866;28;20687;-83
2023/01/13 11:44:12;;;;;;;6.25;1.25;;;22.70;99.90;;;;;;5076231;28;20272;-86
2023/01/13 11:46:43;;;;;;;4.80;1.10;;;22.70;99.90;;;;;;5076095;28;20280;-86
2023/01/13 11:49:24;;;;;;;4.40;1.20;;;22.70;99.90;;;;;;5075900;28;20211;-87
2023/01/13 11:52:02;;;;;;;3.60;1.00;;;22.70;99.90;;;;;;5076061;28;20628;-85
2023/01/13 11:54:58;;;;;;;4.15;0.90;;;22.60;99.90;;;;;;5075830;28;20196;-87
2023/01/13 11:57:48;;;;;;;7.25;1.10;;;22.60;99.90;;;;;;5075634;28;20208;-82
2023/01/13 12:00:45;;;;;;;5.22;1.20;;;22.60;99.90;;;;;;5075915;28;20247;-87
2023/01/13 12:03:32;;;;;;;5.43;1.40;;;22.60;99.90;;;;;;5075709;28;20280;-86
2023/01/13 12:06:21;;;;;;;5.47;1.10;;;22.60;99.90;;;;;;5075812;28;20195;-87
2023/01/13 12:09:18;;;;;;;5.47;1.20;;;22.60;99.90;;;;;;5074932;28;20208;-87
2023/01/13 12:12:21;;;;;;;5.68;1.10;;;22.50;99.90;;;;;;5075390;28;20541;-87
2023/01/13 12:15:18;;;;;;;6.03;1.10;;;22.50;99.90;;;;;;5075545;28;20201;-87
2023/01/13 12:18:00;;;;;;;5.78;1.30;;;22.50;99.90;;;;;;5075539;28;20200;-86
2023/01/13 12:20:41;;;;;;;4.35;1.02;;;22.50;99.90;;;;;;5075618;28;20195;-83
2023/01/13 12:23:19;;;;;;;3.28;1.00;;;22.50;99.90;;;;;;5075379;28;20281;-83
2023/01/13 12:25:56;;;;;;;2.55;0.90;;;22.50;99.90;;;;;;5035237;28;20202;-85
2023/01/13 12:28:33;;;;;;;4.63;1.10;;;22.50;99.90;;;;;;5035440;28;20201;-85
2023/01/13 12:31:06;;;;;;;5.18;1.17;;;22.50;99.90;;;;;;5035427;28;20564;-87
2023/01/13 12:33:49;;;;;;;5.20;1.00;;;22.50;99.90;;;;;;5035357;28;20214;-87
2023/01/13 12:36:29;;;;;;;5.18;1.13;;;22.50;99.90;;;;;;5035129;28;20214;-84
2023/01/13 12:39:06;;;;;;;10.55;1.25;;;22.50;99.90;;;;;;5035232;28;20555;-87
2023/01/13 12:44:15;;;;;;;5.38;1.10;;;22.50;99.90;;;;;;5035305;28;20222;-86
2023/01/13 12:44:35;;;;;;;6.10;1.40;;;22.40;99.90;;;;;;5035328;28;20190;-88
2023/01/13 12:47:26;;;;;;;5.45;1.40;;;22.40;99.90;;;;;;5035383;28;20198;-87
2023/01/13 12:50:43;;;;;;;7.43;0.98;;;22.40;99.90;;;;;;5034952;28;20300;-87
2023/01/13 12:53:37;;;;;;;5.53;1.10;;;22.40;99.90;;;;;;5021840;28;20297;-87
2023/01/13 12:56:31;;;;;;;6.60;1.30;;;22.30;99.90;;;;;;5034856;28;20229;-87
2023/01/13 12:59:54;;;;;;;6.65;1.20;;;22.30;99.90;;;;;;5035056;28;20301;-87
2023/01/13 13:02:41;;;;;;;8.85;1.15;;;22.30;99.90;;;;;;5034848;28;20198;-84
2023/01/13 13:05:52;;;;;;;3.58;0.80;;;22.30;99.90;;;;;;5034671;28;20186;-88
2023/01/13 13:08:31;;;;;;;5.85;1.10;;;22.30;99.90;;;;;;5034500;28;20190;-86
2023/01/13 13:14:06;;;;;;;5.53;1.35;;;22.30;99.90;;;;;;5022609;28;20198;-87
2023/01/13 13:16:51;;;;;;;5.60;1.35;;;22.30;99.90;;;;;;5034509;28;20757;-87
2023/01/13 13:19:47;;;;;;;3.47;1.10;;;22.30;99.90;;;;;;5034290;28;20201;-86
2023/01/13 13:22:45;;;;;;;6.20;1.10;;;22.30;99.90;;;;;;5031993;28;20289;-87
2023/01/13 13:25:27;;;;;;;7.90;1.45;;;22.30;99.90;;;;;;5066627;28;20232;-86
2023/01/13 13:28:26;;;;;;;5.80;1.23;;;22.30;99.90;;;;;;5074268;28;20193;-87
2023/01/13 13:31:18;;;;;;;4.95;1.10;;;22.30;99.90;;;;;;5051265;28;20239;-86
2023/01/13 13:34:07;;;;;;;6.97;1.42;;;22.30;99.90;;;;;;5074061;28;20682;-86
2023/01/13 13:37:18;;;;;;;7.97;1.50;;;22.30;99.90;;;;;;5074040;28;20307;-87
2023/01/13 13:48:29;;;;;;;4.97;1.13;;;22.20;99.90;;;;;;5037853;28;20283;-86
2023/01/13 13:51:02;;;;;;;5.03;1.55;;;22.20;99.90;;;;;;5073505;28;20280;-86
2023/01/13 13:53:36;;;;;;;6.03;1.27;;;22.20;99.90;;;;;;5073632;28;20193;-86
2023/01/13 13:56:20;;;;;;;6.22;1.30;;;22.20;99.90;;;;;;5073784;28;20264;-86
2023/01/13 13:58:52;;;;;;;5.00;1.20;;;22.20;99.90;;;;;;5073634;28;20216;-87
2023/01/13 14:01:36;;;;;;;5.32;1.10;;;22.20;99.90;;;;;;5073439;28;20193;-87
2023/01/13 14:04:14;;;;;;;7.57;1.20;;;22.10;99.90;;;;;;5073570;28;20275;-87
2023/01/13 14:06:55;;;;;;;6.28;1.30;;;22.10;99.90;;;;;;5073259;28;20192;-86
2023/01/13 14:09:29;;;;;;;5.20;1.00;;;22.10;99.90;;;;;;5073397;28;20254;-87
2023/01/13 14:12:05;;;;;;;5.93;1.38;;;22.00;99.90;;;;;;5073879;28;20568;-87
2023/01/13 14:14:36;;;;;;;3.85;1.00;;;22.00;99.90;;;;;;5073314;28;20204;-87
2023/01/13 14:17:08;;;;;;;6.97;1.13;;;22.00;99.90;;;;;;5069515;28;20590;-86
2023/01/13 14:19:44;;;;;;;7.10;1.20;;;22.00;99.90;;;;;;5073281;28;20232;-86
2023/01/13 14:22:18;;;;;;;7.57;1.38;;;21.90;99.90;;;;;;5073190;28;20193;-87
2023/01/13 14:24:54;;;;;;;4.93;1.13;;;21.90;99.90;;;;;;5073148;28;20315;-87
2023/01/13 14:27:28;;;;;;;4.82;1.02;;;21.90;99.90;;;;;;5073219;28;20184;-87
2023/01/13 14:30:01;;;;;;;4.68;1.25;;;21.80;99.90;;;;;;5073282;28;20189;-86
2023/01/13 14:32:38;;;;;;;4.05;1.17;;;21.80;99.90;;;;;;5072599;28;20655;-86
2023/01/13 14:35:11;;;;;;;6.15;1.13;;;21.80;99.90;;;;;;5073370;28;20185;-87
2023/01/13 14:37:44;;;;;;;4.78;1.13;;;21.80;99.90;;;;;;5073068;28;20303;-87
2023/01/13 14:40:46;;;;;;;4.70;1.00;;;21.70;99.90;;;;;;5073063;28;20220;-85